createdAt,value
2022-11-10T00:00:39.150Z,100120.06
2022-11-10T00:03:10.190Z,100121.91
2022-11-10T00:05:39.137Z,100128.16
2022-11-10T00:08:09.556Z,100132.66
2022-11-10T00:10:57.124Z,100131.44
2022-11-10T00:13:26.752Z,100147.91
2022-11-10T00:16:09.310Z,100145.69
2022-11-10T00:18:38.881Z,100156.28
2022-11-10T00:21:08.738Z,100168.69
2022-11-10T00:23:37.187Z,100151.00
2022-11-10T00:26:11.813Z,100171.72
2022-11-10T00:28:40.089Z,100163.59
2022-11-10T00:31:08.888Z,100166.66
2022-11-10T00:33:39.485Z,100186.78
2022-11-10T00:36:08.112Z,100197.56
2022-11-10T00:38:36.371Z,100208.97
2022-11-10T00:41:04.906Z,100221.16
2022-11-10T00:43:33.665Z,100219.75
2022-11-10T00:46:02.259Z,100218.78
2022-11-10T00:48:30.620Z,100239.94
2022-11-10T00:51:00.198Z,100233.81
2022-11-10T00:53:28.443Z,100243.19
2022-11-10T00:55:56.693Z,100238.50
2022-11-10T00:58:24.968Z,100242.41
2022-11-10T01:00:53.165Z,100240.41
2022-11-10T01:03:22.420Z,100238.78
2022-11-10T01:05:50.791Z,100226.38
2022-11-10T01:08:20.433Z,100247.19
2022-11-10T01:10:48.549Z,100239.25
2022-11-10T01:13:16.711Z,100249.16
2022-11-10T01:15:44.829Z,100274.63
2022-11-10T01:18:13.000Z,100270.31
2022-11-10T01:20:41.200Z,100273.63
2022-11-10T01:23:09.322Z,100276.06
2022-11-10T01:25:38.907Z,100271.22
2022-11-10T01:28:07.133Z,100272.41
2022-11-10T01:30:35.434Z,100282.38
2022-11-10T01:33:03.741Z,100266.09
2022-11-10T01:35:31.952Z,100283.63
2022-11-10T01:38:00.146Z,100286.44
2022-11-10T01:40:28.359Z,100272.63
2022-11-10T01:42:59.637Z,100284.38
2022-11-10T01:45:52.867Z,100277.81
2022-11-10T01:48:30.139Z,100279.06
2022-11-10T01:51:02.953Z,100290.00
2022-11-10T01:53:33.875Z,100290.00
2022-11-10T01:56:04.073Z,100289.41
2022-11-10T01:58:40.311Z,100297.13
2022-11-10T02:01:09.388Z,100308.53
2022-11-10T02:03:42.974Z,100303.06
2022-11-10T02:06:12.394Z,100307.53
2022-11-10T02:08:42.320Z,100309.16
2022-11-10T02:11:10.487Z,100315.47
2022-11-10T02:13:40.475Z,100312.41
2022-11-10T02:16:08.981Z,100308.34
2022-11-10T02:18:38.104Z,100306.69
2022-11-10T02:21:08.180Z,100303.25
2022-11-10T02:23:50.745Z,100301.22
2022-11-10T02:26:23.404Z,100307.13
2022-11-10T02:28:51.856Z,100283.31
2022-11-10T02:31:20.052Z,100283.31
2022-11-10T02:33:48.424Z,100290.25
2022-11-10T02:36:18.254Z,100274.81
2022-11-10T02:38:46.609Z,100278.25
2022-11-10T02:41:14.747Z,100277.28
2022-11-10T02:43:43.199Z,100277.53
2022-11-10T02:46:11.302Z,100280.19
2022-11-10T02:48:39.517Z,100289.75
2022-11-10T02:51:08.184Z,100294.81
2022-11-10T02:53:37.936Z,100308.47
2022-11-10T02:56:06.861Z,100299.53
2022-11-10T02:58:35.176Z,100291.22
2022-11-10T03:01:07.059Z,100311.16
2022-11-10T03:03:36.224Z,100299.97
2022-11-10T03:06:04.365Z,100312.97
2022-11-10T03:08:32.498Z,100300.78
2022-11-10T03:11:02.059Z,100285.72
2022-11-10T03:13:51.324Z,100306.66
2022-11-10T03:16:20.272Z,100302.19
2022-11-10T03:18:48.434Z,100286.94
2022-11-10T03:21:16.651Z,100282.84
2022-11-10T03:23:44.815Z,100303.84
2022-11-10T03:26:14.460Z,100310.97
2022-11-10T03:28:42.639Z,100308.13
2022-11-10T03:31:10.731Z,100294.69
2022-11-10T03:33:38.785Z,100303.44
2022-11-10T03:36:07.247Z,100295.50
2022-11-10T03:38:35.459Z,100305.69
2022-11-10T03:41:18.884Z,100306.13
2022-11-10T03:43:50.363Z,100316.72
2022-11-10T03:46:19.135Z,100313.44
2022-11-10T03:48:53.253Z,100301.22
2022-11-10T03:51:22.852Z,100296.94
2022-11-10T03:53:51.434Z,100288.00
2022-11-10T03:56:19.631Z,100284.53
2022-11-10T03:58:49.306Z,100289.00
2022-11-10T04:01:17.489Z,100290.19
2022-11-10T04:03:51.108Z,100297.34
2022-11-10T04:06:37.212Z,100289.81
2022-11-10T04:09:06.892Z,100307.09
2022-11-10T04:11:52.650Z,100300.16
2022-11-10T04:14:39.629Z,100301.38
2022-11-10T04:17:08.528Z,100289.16
2022-11-10T04:19:36.758Z,100292.59
2022-11-10T04:22:04.889Z,100300.75
2022-11-10T04:24:33.078Z,100304.38
2022-11-10T04:27:01.150Z,100305.41
2022-11-10T04:29:30.678Z,100295.88
2022-11-10T04:31:58.871Z,100300.78
2022-11-10T04:34:27.089Z,100280.84
2022-11-10T04:36:55.308Z,100261.91
2022-11-10T04:39:23.524Z,100277.41
2022-11-10T04:41:51.660Z,100273.34
2022-11-10T04:44:19.759Z,100268.06
2022-11-10T04:46:49.751Z,100280.91
2022-11-10T04:49:18.913Z,100271.34
2022-11-10T04:51:47.081Z,100291.28
2022-11-10T04:54:15.241Z,100283.78
2022-11-10T04:56:43.378Z,100286.22
2022-11-10T04:59:11.475Z,100298.47
2022-11-10T05:01:39.520Z,100296.81
2022-11-10T05:04:09.062Z,100299.28
2022-11-10T05:06:37.240Z,100287.88
2022-11-10T05:09:05.518Z,100299.06
2022-11-10T05:11:33.753Z,100296.81
2022-11-10T05:14:01.961Z,100318.84
2022-11-10T05:16:30.114Z,100292.34
2022-11-10T05:18:58.432Z,100300.09
2022-11-10T05:21:27.939Z,100293.16
2022-11-10T05:23:56.101Z,100287.66
2022-11-10T05:26:24.437Z,100284.59
2022-11-10T05:28:52.665Z,100291.72
2022-11-10T05:31:20.858Z,100283.78
2022-11-10T05:33:49.018Z,100296.22
2022-11-10T05:36:17.241Z,100294.16
2022-11-10T05:38:46.804Z,100299.28
2022-11-10T05:41:14.932Z,100303.75
2022-11-10T05:43:43.214Z,100299.09
2022-11-10T05:46:11.960Z,100304.41
2022-11-10T05:48:40.106Z,100286.25
2022-11-10T05:51:08.327Z,100278.53
2022-11-10T05:53:36.551Z,100271.41
2022-11-10T05:56:06.824Z,100280.78
2022-11-10T05:58:35.058Z,100281.00
2022-11-10T06:01:03.381Z,100276.91
2022-11-10T06:03:31.586Z,100276.50
2022-11-10T06:05:59.871Z,100275.28
2022-11-10T06:08:27.970Z,100281.41
2022-11-10T06:10:56.116Z,100262.84
2022-11-10T06:13:25.962Z,100268.75
2022-11-10T06:15:54.191Z,100257.34
2022-11-10T06:18:22.510Z,100264.31
2022-11-10T06:20:50.687Z,100266.94
2022-11-10T06:23:19.069Z,100266.53
2022-11-10T06:25:47.536Z,100251.25
2022-11-10T06:28:15.951Z,100260.63
2022-11-10T06:30:45.520Z,100263.09
2022-11-10T06:33:13.605Z,100273.25
2022-11-10T06:35:41.765Z,100262.66
2022-11-10T06:38:12.882Z,100293.25
2022-11-10T06:40:41.327Z,100262.28
2022-11-10T06:43:09.406Z,100271.25
2022-11-10T06:45:37.547Z,100278.56
2022-11-10T06:48:09.584Z,100277.31
2022-11-10T06:50:37.679Z,100292.84
2022-11-10T06:53:05.846Z,100289.56
2022-11-10T06:55:33.986Z,100283.44
2022-11-10T06:58:02.447Z,100299.53
2022-11-10T07:00:31.243Z,100295.06
2022-11-10T07:03:03.797Z,100314.84
2022-11-10T07:05:35.055Z,100321.38
2022-11-10T07:08:04.299Z,100320.72
2022-11-10T07:10:32.773Z,100333.97
2022-11-10T07:13:01.601Z,100331.13
2022-11-10T07:15:30.464Z,100321.16
2022-11-10T07:17:58.743Z,100331.13
2022-11-10T07:20:28.632Z,100337.66
2022-11-10T07:23:02.056Z,100339.28
2022-11-10T07:25:32.690Z,100335.81
2022-11-10T07:28:02.853Z,100331.72
2022-11-10T07:30:33.232Z,100344.56
2022-11-10T07:33:06.173Z,100340.25
2022-11-10T07:35:35.052Z,100348.63
2022-11-10T07:38:06.461Z,100346.63
2022-11-10T07:40:35.008Z,100335.59
2022-11-10T07:43:03.589Z,100317.47
2022-11-10T07:45:32.749Z,100298.56
2022-11-10T07:48:01.443Z,100305.47
2022-11-10T07:50:30.357Z,100309.53
2022-11-10T07:53:06.471Z,100310.19
2022-11-10T07:55:35.078Z,100317.09
2022-11-10T07:58:03.332Z,100343.19
2022-11-10T08:00:31.830Z,100340.97
2022-11-10T08:03:04.860Z,100347.09
2022-11-10T08:05:33.243Z,100336.28
2022-11-10T08:08:01.607Z,100346.88
2022-11-10T08:10:32.654Z,100337.09
2022-11-10T08:13:02.883Z,100326.69
2022-11-10T08:15:32.619Z,100340.56
2022-11-10T08:18:01.354Z,100337.50
2022-11-10T08:20:29.570Z,100354.00
2022-11-10T08:23:00.022Z,100349.13
2022-11-10T08:25:34.250Z,100358.09
2022-11-10T08:28:05.673Z,100345.47
2022-11-10T08:30:35.054Z,100347.94
2022-11-10T08:33:05.509Z,100351.56
2022-11-10T08:35:36.772Z,100358.94
2022-11-10T08:38:10.029Z,100370.75
2022-11-10T08:40:38.889Z,100382.19
2022-11-10T08:43:09.029Z,100382.19
2022-11-10T08:45:37.233Z,100385.47
2022-11-10T08:48:07.377Z,100394.22
2022-11-10T08:50:35.725Z,100389.53
2022-11-10T08:53:05.384Z,100385.84
2022-11-10T08:55:33.760Z,100382.63
2022-11-10T08:58:03.585Z,100361.84
2022-11-10T09:00:34.171Z,100353.88
2022-11-10T09:03:07.791Z,100368.59
2022-11-10T09:05:37.138Z,100373.69
2022-11-10T09:08:05.878Z,100382.25
2022-11-10T09:10:36.299Z,100380.81
2022-11-10T09:13:05.827Z,100373.66
2022-11-10T09:15:36.699Z,100382.03
2022-11-10T09:18:06.949Z,100381.84
2022-11-10T09:20:36.901Z,100385.91
2022-11-10T09:23:09.747Z,100390.03
2022-11-10T09:25:38.495Z,100391.66
2022-11-10T09:28:06.786Z,100386.94
2022-11-10T09:30:36.387Z,100398.19
2022-11-10T09:33:04.759Z,100387.56
2022-11-10T09:35:32.808Z,100390.63
2022-11-10T09:38:01.065Z,100401.84
2022-11-10T09:40:40.036Z,100392.88
2022-11-10T09:43:15.772Z,100406.97
2022-11-10T09:45:51.848Z,100407.16
2022-11-10T09:48:26.892Z,100405.09
2022-11-10T09:50:58.970Z,100416.53
2022-11-10T09:53:33.513Z,100432.44
2022-11-10T09:56:04.756Z,100435.31
2022-11-10T09:58:38.767Z,100444.69
2022-11-10T10:01:26.735Z,100453.47
2022-11-10T10:04:12.308Z,100447.16
2022-11-10T10:07:10.229Z,100444.50
2022-11-10T10:09:46.716Z,100451.00
2022-11-10T10:12:25.451Z,100421.44
2022-11-10T10:15:13.643Z,100410.63
2022-11-10T10:17:54.601Z,100413.06
2022-11-10T10:20:30.481Z,100412.66
2022-11-10T10:23:09.356Z,100425.31
2022-11-10T10:25:41.041Z,100417.78
2022-11-10T10:28:17.791Z,100418.59
2022-11-10T10:30:46.648Z,100430.59
2022-11-10T10:33:19.452Z,100433.47
2022-11-10T10:35:50.062Z,100437.78
2022-11-10T10:38:24.575Z,100453.28
2022-11-10T10:40:54.290Z,100442.06
2022-11-10T10:43:22.595Z,100455.75
2022-11-10T10:46:07.346Z,100454.50
2022-11-10T10:48:36.999Z,100451.88
2022-11-10T10:51:05.763Z,100461.44
2022-11-10T10:53:34.113Z,100460.63
2022-11-10T10:56:06.888Z,100473.25
2022-11-10T10:58:37.771Z,100478.59
2022-11-10T11:01:08.961Z,100452.03
2022-11-10T11:03:53.377Z,100469.59
2022-11-10T11:06:25.778Z,100486.97
2022-11-10T11:09:00.472Z,100478.13
2022-11-10T11:11:31.631Z,100497.75
2022-11-10T11:14:16.981Z,100505.13
2022-11-10T11:16:51.112Z,100488.16
2022-11-10T11:19:22.741Z,100490.84
2022-11-10T11:22:42.070Z,100480.97
2022-11-10T11:25:21.344Z,100493.41
2022-11-10T11:28:00.913Z,100484.19
2022-11-10T11:30:40.388Z,100483.00
2022-11-10T11:33:19.752Z,100464.81
2022-11-10T11:35:54.176Z,100498.53
2022-11-10T11:38:31.556Z,100487.88
2022-11-10T11:41:14.812Z,100473.56
2022-11-10T11:44:08.125Z,100487.88
2022-11-10T11:46:43.626Z,100490.13
2022-11-10T11:49:40.081Z,100494.63
2022-11-10T11:52:21.170Z,100497.69
2022-11-10T11:55:11.680Z,100507.50
2022-11-10T11:57:52.144Z,100518.13
2022-11-10T12:00:21.906Z,100520.59
2022-11-10T12:03:27.010Z,100519.72
2022-11-10T12:06:08.571Z,100529.53
2022-11-10T12:08:40.980Z,100532.19
2022-11-10T12:11:21.768Z,100532.81
2022-11-10T12:14:02.182Z,100543.22
2022-11-10T12:16:32.236Z,100538.31
2022-11-10T12:19:10.526Z,100544.25
2022-11-10T12:21:45.382Z,100545.47
2022-11-10T12:24:34.044Z,100548.34
2022-11-10T12:27:11.932Z,100532.81
2022-11-10T12:29:46.043Z,100529.97
2022-11-10T12:32:22.062Z,100541.22
2022-11-10T12:34:56.048Z,100528.34
2022-11-10T12:37:32.077Z,100531.59
2022-11-10T12:40:07.145Z,100523.41
2022-11-10T12:42:38.991Z,100525.28
2022-11-10T12:45:09.281Z,100518.69
2022-11-10T12:47:44.181Z,100530.78
2022-11-10T12:50:26.474Z,100522.97
2022-11-10T12:52:58.952Z,100522.16
2022-11-10T12:55:37.290Z,100506.22
2022-11-10T12:58:07.363Z,100507.03
2022-11-10T13:00:41.320Z,100503.38
2022-11-10T13:03:16.695Z,100508.88
2022-11-10T13:05:46.539Z,100498.59
2022-11-10T13:08:28.532Z,100496.16
2022-11-10T13:11:03.654Z,100491.22
2022-11-10T13:13:40.963Z,100512.94
2022-11-10T13:16:11.546Z,100505.59
2022-11-10T13:19:00.914Z,100512.75
2022-11-10T13:22:07.369Z,100512.56
2022-11-10T13:24:37.201Z,100519.31
2022-11-10T13:27:11.677Z,100514.81
2022-11-10T13:29:56.271Z,100520.13
2022-11-10T13:32:28.170Z,100511.16
2022-11-10T13:34:56.907Z,100520.97
2022-11-10T13:37:51.550Z,100522.22
2022-11-10T13:40:29.654Z,100520.59
2022-11-10T13:43:26.045Z,100518.91
2022-11-10T13:46:05.279Z,100525.91
2022-11-10T13:48:51.396Z,100525.09
2022-11-10T13:51:33.700Z,100533.88
2022-11-10T13:54:20.891Z,100529.38
2022-11-10T13:57:06.008Z,100536.94
2022-11-10T13:59:47.322Z,100558.78
2022-11-10T14:02:47.519Z,100537.97
2022-11-10T14:06:03.616Z,100526.72
2022-11-10T14:08:49.794Z,100537.34
2022-11-10T14:11:23.821Z,100545.94
2022-11-10T14:13:57.655Z,100543.06
2022-11-10T14:16:31.614Z,100545.72
2022-11-10T14:19:04.549Z,100537.34
2022-11-10T14:21:42.603Z,100559.63
2022-11-10T14:24:20.346Z,100566.38
2022-11-10T14:26:53.317Z,100581.91
2022-11-10T14:29:28.004Z,100554.91
2022-11-10T14:31:58.713Z,100586.00
2022-11-10T14:34:28.195Z,100581.72
2022-11-10T14:36:58.385Z,100589.69
2022-11-10T14:39:32.996Z,100573.56
2022-11-10T14:42:04.242Z,100581.94
2022-11-10T14:44:34.211Z,100580.09
2022-11-10T14:47:24.134Z,100588.47
2022-11-10T14:50:09.251Z,100602.19
2022-11-10T14:52:41.485Z,100599.13
2022-11-10T14:55:16.257Z,100610.16
2022-11-10T14:57:49.536Z,100602.81
2022-11-10T15:00:25.250Z,100593.41
2022-11-10T15:02:56.888Z,100584.19
2022-11-10T15:05:26.131Z,100580.72
2022-11-10T15:07:56.129Z,100571.09
2022-11-10T15:10:26.766Z,100572.13
2022-11-10T15:13:07.182Z,100556.81
2022-11-10T15:15:35.501Z,100565.00
2022-11-10T15:18:05.375Z,100553.56
2022-11-10T15:20:36.855Z,100549.28
2022-11-10T15:23:07.887Z,100553.56
2022-11-10T15:25:38.626Z,100544.56
2022-11-10T15:28:18.649Z,100531.47
2022-11-10T15:30:52.169Z,100541.28
2022-11-10T15:33:27.464Z,100543.94
2022-11-10T15:35:57.310Z,100547.22
2022-11-10T15:38:31.430Z,100560.09
2022-11-10T15:41:20.694Z,100548.63
2022-11-10T15:43:51.076Z,100544.13
2022-11-10T15:46:22.315Z,100558.88
2022-11-10T15:48:53.463Z,100565.81
2022-11-10T15:51:26.148Z,100564.78
2022-11-10T15:53:54.949Z,100543.75
2022-11-10T15:56:24.909Z,100554.56
2022-11-10T15:59:00.610Z,100559.09
2022-11-10T16:01:30.111Z,100560.91
2022-11-10T16:03:59.624Z,100566.03
2022-11-10T16:06:30.104Z,100560.09
2022-11-10T16:08:58.555Z,100548.03
2022-11-10T16:11:26.868Z,100574.00
2022-11-10T16:13:56.463Z,100561.53
2022-11-10T16:16:24.776Z,100565.59
2022-11-10T16:18:53.009Z,100572.75
2022-11-10T16:21:24.405Z,100569.06
2022-11-10T16:23:53.361Z,100577.03
2022-11-10T16:26:24.980Z,100573.78
2022-11-10T16:28:53.291Z,100576.22
2022-11-10T16:31:23.168Z,100583.59
2022-11-10T16:33:51.501Z,100571.31
2022-11-10T16:36:26.254Z,100571.94
2022-11-10T16:38:55.393Z,100587.25
2022-11-10T16:41:24.110Z,100578.47
2022-11-10T16:43:52.381Z,100586.44
2022-11-10T16:46:24.115Z,100590.34
2022-11-10T16:48:54.864Z,100579.72
2022-11-10T16:51:30.620Z,100583.38
2022-11-10T16:53:59.725Z,100566.44
2022-11-10T16:56:28.155Z,100575.63
2022-11-10T16:58:56.457Z,100584.41
2022-11-10T17:01:27.978Z,100587.88
2022-11-10T17:03:59.594Z,100599.75
2022-11-10T17:06:30.776Z,100572.16
2022-11-10T17:09:04.400Z,100571.56
2022-11-10T17:11:32.590Z,100578.91
2022-11-10T17:14:00.660Z,100581.16
2022-11-10T17:16:32.012Z,100559.91
2022-11-10T17:19:02.302Z,100568.91
2022-11-10T17:21:33.423Z,100584.00
2022-11-10T17:24:02.086Z,100593.81
2022-11-10T17:26:31.223Z,100592.81
2022-11-10T17:28:59.807Z,100600.78
2022-11-10T17:31:27.990Z,100614.88
2022-11-10T17:33:56.095Z,100602.41
2022-11-10T17:36:25.326Z,100615.47
2022-11-10T17:38:54.880Z,100601.38
2022-11-10T17:41:23.157Z,100606.47
2022-11-10T17:43:51.313Z,100589.72
2022-11-10T17:46:19.420Z,100598.31
2022-11-10T17:48:48.159Z,100601.16
2022-11-10T17:51:20.506Z,100594.00
2022-11-10T17:53:50.705Z,100595.84
2022-11-10T17:56:20.792Z,100598.50
2022-11-10T17:58:48.954Z,100595.84
2022-11-10T18:01:19.506Z,100597.91
2022-11-10T18:03:47.998Z,100612.00
2022-11-10T18:06:17.150Z,100616.28
2022-11-10T18:08:45.603Z,100622.41
2022-11-10T18:11:16.148Z,100628.75
2022-11-10T18:13:46.007Z,100653.47
2022-11-10T18:16:15.174Z,100631.00
2022-11-10T18:18:43.856Z,100630.00
2022-11-10T18:21:12.567Z,100627.34
2022-11-10T18:23:40.694Z,100621.41
2022-11-10T18:26:11.765Z,100625.91
2022-11-10T18:28:42.225Z,100636.31
2022-11-10T18:31:13.965Z,100636.31
2022-11-10T18:33:42.171Z,100623.44
2022-11-10T18:36:11.339Z,100616.91
2022-11-10T18:38:39.520Z,100629.78
2022-11-10T18:41:22.503Z,100657.56
2022-11-10T18:43:50.701Z,100626.09
2022-11-10T18:46:20.252Z,100624.25
2022-11-10T18:48:48.901Z,100605.25
2022-11-10T18:51:17.364Z,100621.59
2022-11-10T18:53:45.504Z,100612.59
2022-11-10T18:56:14.521Z,100613.03
2022-11-10T18:58:43.176Z,100628.53
2022-11-10T19:01:12.282Z,100610.97
2022-11-10T19:03:42.892Z,100636.72
2022-11-10T19:06:12.000Z,100636.72
2022-11-10T19:08:40.242Z,100642.84
2022-11-10T19:11:09.816Z,100653.47
2022-11-10T19:13:38.687Z,100638.56
2022-11-10T19:16:07.960Z,100641.22
2022-11-10T19:18:36.063Z,100657.75
2022-11-10T19:21:08.009Z,100636.94
2022-11-10T19:23:36.115Z,100639.59
2022-11-10T19:26:05.798Z,100646.13
2022-11-10T19:28:34.240Z,100653.28
2022-11-10T19:31:03.016Z,100648.97
2022-11-10T19:33:31.821Z,100647.34
2022-11-10T19:36:04.511Z,100635.09
2022-11-10T19:38:34.552Z,100622.00
2022-11-10T19:41:05.561Z,100612.19
2022-11-10T19:43:33.646Z,100632.63
2022-11-10T19:46:06.933Z,100622.00
2022-11-10T19:48:35.581Z,100605.25
2022-11-10T19:51:05.475Z,100613.84
2022-11-10T19:53:35.049Z,100615.47
2022-11-10T19:56:05.011Z,100633.03
2022-11-10T19:58:33.360Z,100625.69
2022-11-10T20:01:02.176Z,100636.31
2022-11-10T20:03:30.874Z,100646.94
2022-11-10T20:06:00.306Z,100628.97
2022-11-10T20:08:28.567Z,100636.31
2022-11-10T20:11:01.106Z,100628.97
2022-11-10T20:13:29.236Z,100639.59
2022-11-10T20:15:57.469Z,100649.78
2022-11-10T20:18:25.790Z,100647.56
2022-11-10T20:20:53.829Z,100655.09
2022-11-10T20:23:22.247Z,100656.94
2022-11-10T20:25:50.702Z,100648.16
2022-11-10T20:28:20.199Z,100666.97
2022-11-10T20:30:48.410Z,100674.72
2022-11-10T20:33:16.490Z,100665.13
2022-11-10T20:35:45.070Z,100671.03
2022-11-10T20:38:13.242Z,100656.75
2022-11-10T20:40:45.293Z,100662.25
2022-11-10T20:43:15.025Z,100686.38
2022-11-10T20:45:44.551Z,100681.66
2022-11-10T20:48:12.953Z,100684.31
2022-11-10T20:50:42.264Z,100669.22
2022-11-10T20:53:10.496Z,100669.22
2022-11-10T20:55:54.925Z,100686.59
2022-11-10T20:58:23.109Z,100671.88
2022-11-10T21:00:53.215Z,100680.84
2022-11-10T21:03:21.960Z,100696.63
2022-11-10T21:05:54.635Z,100673.69
2022-11-10T21:08:23.285Z,100676.34
2022-11-10T21:10:52.964Z,100663.28
2022-11-10T21:13:21.900Z,100682.50
2022-11-10T21:15:53.338Z,100701.13
2022-11-10T21:18:22.067Z,100688.66
2022-11-10T21:20:51.577Z,100682.50
2022-11-10T21:23:19.993Z,100671.88
2022-11-10T21:25:53.942Z,100678.19
2022-11-10T21:28:22.257Z,100686.97
2022-11-10T21:30:50.676Z,100677.59
2022-11-10T21:33:20.648Z,100698.84
2022-11-10T21:35:49.771Z,100715.59
2022-11-10T21:38:17.898Z,100697.59
2022-11-10T21:40:46.166Z,100699.66
2022-11-10T21:43:14.440Z,100706.22
2022-11-10T21:45:42.693Z,100698.25
2022-11-10T21:48:10.857Z,100700.09
2022-11-10T21:50:40.387Z,100701.50
2022-11-10T21:53:08.842Z,100698.84
2022-11-10T21:55:37.002Z,100700.28
2022-11-10T21:58:05.184Z,100710.09
2022-11-10T22:00:33.369Z,100710.09
2022-11-10T22:03:02.014Z,100719.72
2022-11-10T22:05:30.250Z,100718.06
2022-11-10T22:07:59.819Z,100716.22
2022-11-10T22:10:45.402Z,100710.72
2022-11-10T22:13:34.145Z,100715.22
2022-11-10T22:16:19.997Z,100712.34
2022-11-10T22:18:48.724Z,100703.75
2022-11-10T22:21:16.801Z,100725.03
2022-11-10T22:24:03.897Z,100702.75
2022-11-10T22:26:32.162Z,100705.59
2022-11-10T22:29:00.399Z,100719.09
2022-11-10T22:31:28.461Z,100712.75
2022-11-10T22:33:56.634Z,100707.03
2022-11-10T22:36:24.888Z,100700.91
2022-11-10T22:38:56.138Z,100701.31
2022-11-10T22:41:44.827Z,100693.53
2022-11-10T22:44:14.682Z,100702.13
2022-11-10T22:46:45.921Z,100694.97
2022-11-10T22:49:15.378Z,100704.78
2022-11-10T22:51:45.547Z,100700.50
2022-11-10T22:54:16.755Z,100691.28
2022-11-10T22:56:45.182Z,100697.44
2022-11-10T22:59:13.598Z,100698.25
2022-11-10T23:01:43.201Z,100698.44
2022-11-10T23:04:12.517Z,100684.13
2022-11-10T23:06:40.788Z,100695.41
2022-11-10T23:09:09.220Z,100698.06
2022-11-10T23:11:38.895Z,100700.50
2022-11-10T23:14:07.034Z,100698.88
2022-11-10T23:16:36.573Z,100699.91
2022-11-10T23:19:04.854Z,100696.81
2022-11-10T23:21:33.032Z,100703.38
2022-11-10T23:24:01.197Z,100709.06
2022-11-10T23:26:30.738Z,100711.94
2022-11-10T23:29:00.356Z,100706.63
2022-11-10T23:31:29.167Z,100718.06
2022-11-10T23:33:58.245Z,100712.75
2022-11-10T23:36:27.912Z,100711.53
2022-11-10T23:38:56.707Z,100718.88
2022-11-10T23:41:26.248Z,100711.72
2022-11-10T23:43:54.776Z,100712.53
2022-11-10T23:46:24.384Z,100716.22
2022-11-10T23:48:52.637Z,100712.34
2022-11-10T23:51:20.860Z,100715.84
2022-11-10T23:53:49.110Z,100716.88
2022-11-10T23:56:17.297Z,100706.63
2022-11-10T23:58:45.464Z,100712.78
